Portada
METAR-TAF:

METAR-TAF

Aeropuertos :

Piggs Peak, Suazilandia

latitud: 25-58-04S, longitud: 31-15-03E, altitud: 1099 m

Observación

El informe se hizo hace 57 minutos, a las 06:00 UTC
Viento 1 kt del norte
Temperatura 15°C
Humedad 100%
Presión 1029 hPa

METAR: FDPP 160600Z AUTO 35001KT //// // ////// 15/15 Q1029

Hora: 08:57 (06:57 UTC)


TAF: falta

Observaciones y pronósticos meteorológicos de más de 4000 aeropuertos (mensajes METAR y TAF).

Los puntos amarillos y rojos representan las estaciones disponibles.

Ponga el ratón en el punto deseado para ver el nombre de la estación.

Haga clic para ver las observaciones y los pronósticos meteorológicos.

Para cambiar el mapa : haga clic en los botones verdes con una cruz de color negro para hacer un zoom, en el botón verde con un guión para alejar o en las flechas verdes para mapas adyacentes.


METAR-TAF: